sensor_id;sensor_type;location;lat;lon;timestamp;P1;durP1;ratioP1;P2;durP2;ratioP2
21615;SDS011;10970;48.714;9.584;2022-12-24T00:02:22;3.10;;;1.37;;
21615;SDS011;10970;48.714;9.584;2022-12-24T00:04:48;4.90;;;1.40;;
21615;SDS011;10970;48.714;9.584;2022-12-24T00:07:13;1.50;;;1.00;;
21615;SDS011;10970;48.714;9.584;2022-12-24T00:09:39;2.03;;;1.50;;
21615;SDS011;10970;48.714;9.584;2022-12-24T00:12:05;1.57;;;1.10;;
21615;SDS011;10970;48.714;9.584;2022-12-24T00:14:30;1.40;;;1.30;;
21615;SDS011;10970;48.714;9.584;2022-12-24T00:16:56;1.27;;;1.00;;
21615;SDS011;10970;48.714;9.584;2022-12-24T00:19:22;3.70;;;1.43;;
21615;SDS011;10970;48.714;9.584;2022-12-24T00:21:47;2.17;;;1.10;;
21615;SDS011;10970;48.714;9.584;2022-12-24T00:24:13;1.90;;;0.90;;
21615;SDS011;10970;48.714;9.584;2022-12-24T00:26:38;1.37;;;1.27;;
21615;SDS011;10970;48.714;9.584;2022-12-24T00:29:04;2.30;;;1.23;;
21615;SDS011;10970;48.714;9.584;2022-12-24T00:31:30;5.70;;;1.77;;
21615;SDS011;10970;48.714;9.584;2022-12-24T00:33:56;1.23;;;1.13;;
21615;SDS011;10970;48.714;9.584;2022-12-24T00:36:21;2.60;;;1.23;;
21615;SDS011;10970;48.714;9.584;2022-12-24T00:38:47;3.03;;;1.80;;
21615;SDS011;10970;48.714;9.584;2022-12-24T00:41:13;3.13;;;1.73;;
21615;SDS011;10970;48.714;9.584;2022-12-24T00:43:58;1.08;;;0.93;;
21615;SDS011;10970;48.714;9.584;2022-12-24T00:46:26;1.75;;;1.42;;
21615;SDS011;10970;48.714;9.584;2022-12-24T00:48:53;1.42;;;0.95;;
21615;SDS011;10970;48.714;9.584;2022-12-24T00:51:19;5.63;;;1.37;;
21615;SDS011;10970;48.714;9.584;2022-12-24T00:53:45;4.93;;;0.90;;
21615;SDS011;10970;48.714;9.584;2022-12-24T00:56:11;1.83;;;1.27;;
21615;SDS011;10970;48.714;9.584;2022-12-24T00:58:37;1.53;;;0.97;;
21615;SDS011;10970;48.714;9.584;2022-12-24T01:01:03;2.13;;;1.70;;
21615;SDS011;10970;48.714;9.584;2022-12-24T01:03:29;1.20;;;1.10;;
21615;SDS011;10970;48.714;9.584;2022-12-24T01:08:26;2.07;;;1.30;;
21615;SDS011;10970;48.714;9.584;2022-12-24T01:10:52;4.47;;;1.37;;
21615;SDS011;10970;48.714;9.584;2022-12-24T01:13:18;4.13;;;1.20;;
21615;SDS011;10970;48.714;9.584;2022-12-24T01:15:43;2.10;;;1.17;;
21615;SDS011;10970;48.714;9.584;2022-12-24T01:18:09;2.73;;;1.23;;
21615;SDS011;10970;48.714;9.584;2022-12-24T01:20:35;2.13;;;1.23;;
21615;SDS011;10970;48.714;9.584;2022-12-24T01:23:00;2.10;;;1.30;;
21615;SDS011;10970;48.714;9.584;2022-12-24T01:25:26;1.20;;;1.10;;
21615;SDS011;10970;48.714;9.584;2022-12-24T01:27:51;1.67;;;1.20;;
21615;SDS011;10970;48.714;9.584;2022-12-24T01:30:17;1.10;;;0.90;;
21615;SDS011;10970;48.714;9.584;2022-12-24T01:32:43;3.33;;;1.73;;
21615;SDS011;10970;48.714;9.584;2022-12-24T01:35:08;2.83;;;1.20;;
21615;SDS011;10970;48.714;9.584;2022-12-24T01:37:34;1.27;;;1.17;;
21615;SDS011;10970;48.714;9.584;2022-12-24T01:40:00;4.73;;;1.40;;
21615;SDS011;10970;48.714;9.584;2022-12-24T01:42:46;2.67;;;1.92;;
21615;SDS011;10970;48.714;9.584;2022-12-24T01:45:39;7.35;;;1.20;;
21615;SDS011;10970;48.714;9.584;2022-12-24T01:48:13;2.75;;;1.45;;
21615;SDS011;10970;48.714;9.584;2022-12-24T01:53:44;2.97;;;1.20;;
21615;SDS011;10970;48.714;9.584;2022-12-24T01:56:13;2.15;;;1.27;;
21615;SDS011;10970;48.714;9.584;2022-12-24T01:58:39;3.90;;;1.20;;
21615;SDS011;10970;48.714;9.584;2022-12-24T02:01:10;4.55;;;1.38;;
21615;SDS011;10970;48.714;9.584;2022-12-24T02:03:36;4.80;;;1.63;;
21615;SDS011;10970;48.714;9.584;2022-12-24T02:06:01;2.90;;;2.00;;
21615;SDS011;10970;48.714;9.584;2022-12-24T02:08:28;3.05;;;2.13;;
21615;SDS011;10970;48.714;9.584;2022-12-24T02:11:25;5.10;;;1.40;;
21615;SDS011;10970;48.714;9.584;2022-12-24T02:13:50;0.95;;;0.80;;
21615;SDS011;10970;48.714;9.584;2022-12-24T02:27:36;1.58;;;1.10;;
21615;SDS011;10970;48.714;9.584;2022-12-24T02:30:20;1.15;;;1.02;;
21615;SDS011;10970;48.714;9.584;2022-12-24T02:35:34;2.33;;;1.60;;
21615;SDS011;10970;48.714;9.584;2022-12-24T02:38:07;2.40;;;0.90;;
21615;SDS011;10970;48.714;9.584;2022-12-24T02:41:10;5.22;;;1.73;;
21615;SDS011;10970;48.714;9.584;2022-12-24T02:43:37;3.63;;;1.33;;
21615;SDS011;10970;48.714;9.584;2022-12-24T02:46:13;6.47;;;1.63;;
21615;SDS011;10970;48.714;9.584;2022-12-24T02:48:43;2.67;;;1.52;;
21615;SDS011;10970;48.714;9.584;2022-12-24T02:51:11;7.65;;;1.77;;
21615;SDS011;10970;48.714;9.584;2022-12-24T02:53:38;2.10;;;1.20;;
21615;SDS011;10970;48.714;9.584;2022-12-24T02:58:46;4.10;;;1.85;;
21615;SDS011;10970;48.714;9.584;2022-12-24T03:08:54;5.45;;;2.13;;
21615;SDS011;10970;48.714;9.584;2022-12-24T03:11:32;3.03;;;1.25;;
21615;SDS011;10970;48.714;9.584;2022-12-24T03:13:59;1.70;;;1.13;;
21615;SDS011;10970;48.714;9.584;2022-12-24T03:16:27;2.67;;;1.65;;
21615;SDS011;10970;48.714;9.584;2022-12-24T03:18:53;4.57;;;1.53;;
21615;SDS011;10970;48.714;9.584;2022-12-24T03:21:28;1.70;;;1.27;;
21615;SDS011;10970;48.714;9.584;2022-12-24T03:24:02;6.63;;;1.48;;
21615;SDS011;10970;48.714;9.584;2022-12-24T03:26:28;4.40;;;1.20;;
21615;SDS011;10970;48.714;9.584;2022-12-24T03:28:55;5.82;;;1.10;;
21615;SDS011;10970;48.714;9.584;2022-12-24T03:31:21;3.37;;;1.47;;
21615;SDS011;10970;48.714;9.584;2022-12-24T03:33:47;3.50;;;1.40;;
21615;SDS011;10970;48.714;9.584;2022-12-24T03:36:13;2.92;;;1.90;;
21615;SDS011;10970;48.714;9.584;2022-12-24T03:38:39;3.30;;;1.42;;
21615;SDS011;10970;48.714;9.584;2022-12-24T03:41:05;2.30;;;1.40;;
21615;SDS011;10970;48.714;9.584;2022-12-24T03:43:31;3.53;;;1.80;;
21615;SDS011;10970;48.714;9.584;2022-12-24T03:45:57;2.30;;;1.27;;
21615;SDS011;10970;48.714;9.584;2022-12-24T03:48:27;4.70;;;1.38;;
21615;SDS011;10970;48.714;9.584;2022-12-24T03:50:53;4.73;;;1.67;;
21615;SDS011;10970;48.714;9.584;2022-12-24T03:53:19;7.43;;;1.57;;
21615;SDS011;10970;48.714;9.584;2022-12-24T03:55:44;5.70;;;1.70;;
21615;SDS011;10970;48.714;9.584;2022-12-24T03:58:11;2.80;;;1.40;;
21615;SDS011;10970;48.714;9.584;2022-12-24T04:00:36;4.60;;;1.80;;
21615;SDS011;10970;48.714;9.584;2022-12-24T04:03:02;5.90;;;1.70;;
21615;SDS011;10970;48.714;9.584;2022-12-24T04:05:28;3.03;;;1.50;;
21615;SDS011;10970;48.714;9.584;2022-12-24T04:07:53;1.87;;;1.70;;
21615;SDS011;10970;48.714;9.584;2022-12-24T04:10:19;4.27;;;1.60;;
21615;SDS011;10970;48.714;9.584;2022-12-24T04:12:45;2.17;;;2.00;;
21615;SDS011;10970;48.714;9.584;2022-12-24T04:15:10;4.17;;;1.70;;
21615;SDS011;10970;48.714;9.584;2022-12-24T04:17:36;4.63;;;1.40;;
21615;SDS011;10970;48.714;9.584;2022-12-24T04:20:02;8.77;;;2.63;;
21615;SDS011;10970;48.714;9.584;2022-12-24T04:22:28;6.85;;;2.15;;
21615;SDS011;10970;48.714;9.584;2022-12-24T04:24:53;8.27;;;2.37;;
21615;SDS011;10970;48.714;9.584;2022-12-24T04:27:19;3.45;;;1.70;;
21615;SDS011;10970;48.714;9.584;2022-12-24T04:29:45;2.77;;;2.10;;
21615;SDS011;10970;48.714;9.584;2022-12-24T04:32:11;8.20;;;2.50;;
21615;SDS011;10970;48.714;9.584;2022-12-24T04:34:36;3.27;;;1.47;;
21615;SDS011;10970;48.714;9.584;2022-12-24T04:37:02;3.77;;;1.80;;
21615;SDS011;10970;48.714;9.584;2022-12-24T04:39:28;3.10;;;1.30;;
21615;SDS011;10970;48.714;9.584;2022-12-24T04:41:53;5.50;;;2.07;;
21615;SDS011;10970;48.714;9.584;2022-12-24T04:44:19;3.03;;;1.83;;
21615;SDS011;10970;48.714;9.584;2022-12-24T04:46:44;5.37;;;1.60;;
21615;SDS011;10970;48.714;9.584;2022-12-24T04:49:10;5.77;;;1.87;;
21615;SDS011;10970;48.714;9.584;2022-12-24T04:51:36;5.13;;;1.47;;
21615;SDS011;10970;48.714;9.584;2022-12-24T04:54:02;5.57;;;2.20;;
21615;SDS011;10970;48.714;9.584;2022-12-24T04:56:28;5.53;;;1.83;;
21615;SDS011;10970;48.714;9.584;2022-12-24T04:58:55;7.03;;;2.25;;
21615;SDS011;10970;48.714;9.584;2022-12-24T05:01:23;3.75;;;1.85;;
21615;SDS011;10970;48.714;9.584;2022-12-24T05:03:50;6.05;;;1.52;;
21615;SDS011;10970;48.714;9.584;2022-12-24T05:06:18;23.80;;;3.70;;
21615;SDS011;10970;48.714;9.584;2022-12-24T05:08:46;6.55;;;1.90;;
21615;SDS011;10970;48.714;9.584;2022-12-24T05:11:12;4.60;;;2.25;;
21615;SDS011;10970;48.714;9.584;2022-12-24T05:13:39;2.80;;;2.15;;
21615;SDS011;10970;48.714;9.584;2022-12-24T05:16:06;5.60;;;1.90;;
21615;SDS011;10970;48.714;9.584;2022-12-24T05:18:32;5.78;;;2.00;;
21615;SDS011;10970;48.714;9.584;2022-12-24T05:20:58;5.13;;;1.70;;
21615;SDS011;10970;48.714;9.584;2022-12-24T05:23:24;8.00;;;2.33;;
21615;SDS011;10970;48.714;9.584;2022-12-24T05:26:22;2.65;;;2.45;;
21615;SDS011;10970;48.714;9.584;2022-12-24T05:28:52;7.10;;;2.05;;
21615;SDS011;10970;48.714;9.584;2022-12-24T05:31:19;4.75;;;2.40;;
21615;SDS011;10970;48.714;9.584;2022-12-24T05:33:45;4.85;;;2.80;;
21615;SDS011;10970;48.714;9.584;2022-12-24T05:36:10;4.67;;;1.83;;
21615;SDS011;10970;48.714;9.584;2022-12-24T05:38:36;3.13;;;2.53;;
21615;SDS011;10970;48.714;9.584;2022-12-24T05:41:02;3.03;;;2.72;;
21615;SDS011;10970;48.714;9.584;2022-12-24T05:43:29;1.85;;;1.52;;
21615;SDS011;10970;48.714;9.584;2022-12-24T05:46:03;4.27;;;2.10;;
21615;SDS011;10970;48.714;9.584;2022-12-24T05:48:30;2.22;;;2.03;;
21615;SDS011;10970;48.714;9.584;2022-12-24T05:50:56;2.10;;;1.90;;
21615;SDS011;10970;48.714;9.584;2022-12-24T05:53:21;2.60;;;2.10;;
21615;SDS011;10970;48.714;9.584;2022-12-24T05:55:47;4.13;;;2.45;;
21615;SDS011;10970;48.714;9.584;2022-12-24T05:58:13;4.07;;;3.47;;
21615;SDS011;10970;48.714;9.584;2022-12-24T06:00:39;4.47;;;2.95;;
21615;SDS011;10970;48.714;9.584;2022-12-24T06:03:05;2.53;;;2.33;;
21615;SDS011;10970;48.714;9.584;2022-12-24T06:05:30;8.47;;;3.20;;
21615;SDS011;10970;48.714;9.584;2022-12-24T06:07:56;3.60;;;2.23;;
21615;SDS011;10970;48.714;9.584;2022-12-24T06:10:22;11.03;;;3.07;;
21615;SDS011;10970;48.714;9.584;2022-12-24T06:12:48;13.43;;;2.47;;
21615;SDS011;10970;48.714;9.584;2022-12-24T06:15:13;4.83;;;2.03;;
21615;SDS011;10970;48.714;9.584;2022-12-24T06:17:39;4.73;;;1.60;;
21615;SDS011;10970;48.714;9.584;2022-12-24T06:20:05;4.10;;;1.90;;
21615;SDS011;10970;48.714;9.584;2022-12-24T06:22:31;3.55;;;1.90;;
21615;SDS011;10970;48.714;9.584;2022-12-24T06:24:57;7.57;;;2.57;;
21615;SDS011;10970;48.714;9.584;2022-12-24T06:27:23;5.60;;;1.83;;
21615;SDS011;10970;48.714;9.584;2022-12-24T06:29:48;10.60;;;2.03;;
21615;SDS011;10970;48.714;9.584;2022-12-24T06:32:14;2.93;;;1.70;;
21615;SDS011;10970;48.714;9.584;2022-12-24T06:34:40;3.10;;;1.93;;
21615;SDS011;10970;48.714;9.584;2022-12-24T06:37:05;4.17;;;2.03;;
21615;SDS011;10970;48.714;9.584;2022-12-24T06:39:31;5.60;;;2.10;;
21615;SDS011;10970;48.714;9.584;2022-12-24T06:41:57;5.77;;;2.53;;
21615;SDS011;10970;48.714;9.584;2022-12-24T06:44:22;3.33;;;1.90;;
21615;SDS011;10970;48.714;9.584;2022-12-24T06:46:48;4.83;;;2.83;;
21615;SDS011;10970;48.714;9.584;2022-12-24T06:49:14;1.83;;;1.37;;
21615;SDS011;10970;48.714;9.584;2022-12-24T06:51:39;2.63;;;1.30;;
21615;SDS011;10970;48.714;9.584;2022-12-24T06:54:05;4.90;;;2.20;;
21615;SDS011;10970;48.714;9.584;2022-12-24T06:56:31;10.43;;;2.33;;
21615;SDS011;10970;48.714;9.584;2022-12-24T06:58:56;6.63;;;2.20;;
21615;SDS011;10970;48.714;9.584;2022-12-24T07:01:22;6.30;;;1.80;;
21615;SDS011;10970;48.714;9.584;2022-12-24T07:03:48;1.93;;;1.70;;
21615;SDS011;10970;48.714;9.584;2022-12-24T07:06:19;5.28;;;1.90;;
21615;SDS011;10970;48.714;9.584;2022-12-24T07:08:48;3.38;;;2.22;;
21615;SDS011;10970;48.714;9.584;2022-12-24T07:11:14;4.00;;;1.90;;
21615;SDS011;10970;48.714;9.584;2022-12-24T07:13:40;2.03;;;1.40;;
21615;SDS011;10970;48.714;9.584;2022-12-24T07:16:05;5.90;;;1.70;;
21615;SDS011;10970;48.714;9.584;2022-12-24T07:18:31;3.23;;;2.67;;
21615;SDS011;10970;48.714;9.584;2022-12-24T07:20:57;4.87;;;1.80;;
21615;SDS011;10970;48.714;9.584;2022-12-24T07:23:22;1.87;;;1.57;;
21615;SDS011;10970;48.714;9.584;2022-12-24T07:25:48;3.35;;;1.90;;
21615;SDS011;10970;48.714;9.584;2022-12-24T07:28:14;3.27;;;1.60;;
21615;SDS011;10970;48.714;9.584;2022-12-24T07:30:40;4.33;;;1.70;;
21615;SDS011;10970;48.714;9.584;2022-12-24T07:33:05;3.70;;;2.10;;
21615;SDS011;10970;48.714;9.584;2022-12-24T07:35:32;8.35;;;2.53;;
21615;SDS011;10970;48.714;9.584;2022-12-24T07:37:58;2.65;;;1.85;;
21615;SDS011;10970;48.714;9.584;2022-12-24T07:40:23;6.50;;;1.90;;
21615;SDS011;10970;48.714;9.584;2022-12-24T07:42:49;2.10;;;1.60;;
21615;SDS011;10970;48.714;9.584;2022-12-24T07:45:15;3.90;;;2.00;;
21615;SDS011;10970;48.714;9.584;2022-12-24T07:47:40;6.83;;;2.30;;
21615;SDS011;10970;48.714;9.584;2022-12-24T07:50:06;2.93;;;1.57;;
21615;SDS011;10970;48.714;9.584;2022-12-24T07:52:32;4.72;;;2.13;;
21615;SDS011;10970;48.714;9.584;2022-12-24T07:54:58;5.90;;;2.63;;
21615;SDS011;10970;48.714;9.584;2022-12-24T07:57:24;5.27;;;1.97;;
21615;SDS011;10970;48.714;9.584;2022-12-24T07:59:49;7.30;;;2.40;;
21615;SDS011;10970;48.714;9.584;2022-12-24T08:02:15;5.80;;;1.67;;
21615;SDS011;10970;48.714;9.584;2022-12-24T08:04:41;6.40;;;2.00;;
21615;SDS011;10970;48.714;9.584;2022-12-24T08:07:07;16.00;;;2.90;;
21615;SDS011;10970;48.714;9.584;2022-12-24T08:09:33;4.70;;;1.93;;
21615;SDS011;10970;48.714;9.584;2022-12-24T08:12:00;8.02;;;3.92;;
21615;SDS011;10970;48.714;9.584;2022-12-24T08:14:29;8.77;;;3.08;;
21615;SDS011;10970;48.714;9.584;2022-12-24T08:16:55;4.30;;;1.75;;
21615;SDS011;10970;48.714;9.584;2022-12-24T08:19:21;2.80;;;2.23;;
21615;SDS011;10970;48.714;9.584;2022-12-24T08:21:47;8.90;;;2.53;;
21615;SDS011;10970;48.714;9.584;2022-12-24T08:24:12;2.63;;;1.53;;
21615;SDS011;10970;48.714;9.584;2022-12-24T08:26:38;6.30;;;2.40;;
21615;SDS011;10970;48.714;9.584;2022-12-24T08:29:04;4.40;;;2.63;;
21615;SDS011;10970;48.714;9.584;2022-12-24T08:31:30;3.53;;;2.50;;
21615;SDS011;10970;48.714;9.584;2022-12-24T08:34:00;4.65;;;3.40;;
21615;SDS011;10970;48.714;9.584;2022-12-24T08:36:27;8.02;;;2.67;;
21615;SDS011;10970;48.714;9.584;2022-12-24T08:38:53;7.53;;;1.80;;
21615;SDS011;10970;48.714;9.584;2022-12-24T08:41:18;7.73;;;2.23;;
21615;SDS011;10970;48.714;9.584;2022-12-24T08:43:44;3.37;;;2.10;;
21615;SDS011;10970;48.714;9.584;2022-12-24T08:46:09;4.30;;;1.60;;
21615;SDS011;10970;48.714;9.584;2022-12-24T08:48:35;4.60;;;1.70;;
21615;SDS011;10970;48.714;9.584;2022-12-24T08:51:06;3.22;;;2.10;;
21615;SDS011;10970;48.714;9.584;2022-12-24T08:53:33;2.90;;;2.00;;
21615;SDS011;10970;48.714;9.584;2022-12-24T08:56:06;4.67;;;2.57;;
21615;SDS011;10970;48.714;9.584;2022-12-24T08:58:33;11.52;;;2.30;;
21615;SDS011;10970;48.714;9.584;2022-12-24T09:00:59;10.13;;;2.77;;
21615;SDS011;10970;48.714;9.584;2022-12-24T09:03:25;5.50;;;2.78;;
21615;SDS011;10970;48.714;9.584;2022-12-24T09:05:51;4.00;;;1.93;;
21615;SDS011;10970;48.714;9.584;2022-12-24T09:08:17;4.15;;;2.10;;
21615;SDS011;10970;48.714;9.584;2022-12-24T09:10:44;8.20;;;3.05;;
21615;SDS011;10970;48.714;9.584;2022-12-24T09:13:09;4.03;;;2.20;;
21615;SDS011;10970;48.714;9.584;2022-12-24T09:15:35;10.20;;;3.03;;
21615;SDS011;10970;48.714;9.584;2022-12-24T09:18:01;3.23;;;2.37;;
21615;SDS011;10970;48.714;9.584;2022-12-24T09:20:27;5.97;;;1.83;;
21615;SDS011;10970;48.714;9.584;2022-12-24T09:22:52;2.57;;;1.50;;
21615;SDS011;10970;48.714;9.584;2022-12-24T09:25:18;3.17;;;2.13;;
21615;SDS011;10970;48.714;9.584;2022-12-24T09:27:44;4.30;;;1.80;;
21615;SDS011;10970;48.714;9.584;2022-12-24T09:30:10;6.73;;;2.30;;
21615;SDS011;10970;48.714;9.584;2022-12-24T09:32:36;5.35;;;2.20;;
21615;SDS011;10970;48.714;9.584;2022-12-24T09:35:02;9.57;;;2.23;;
21615;SDS011;10970;48.714;9.584;2022-12-24T09:37:28;2.57;;;2.10;;
21615;SDS011;10970;48.714;9.584;2022-12-24T09:39:53;9.90;;;2.63;;
21615;SDS011;10970;48.714;9.584;2022-12-24T09:44:49;3.57;;;2.23;;
21615;SDS011;10970;48.714;9.584;2022-12-24T09:47:42;4.75;;;1.98;;
21615;SDS011;10970;48.714;9.584;2022-12-24T09:52:55;7.25;;;2.63;;
21615;SDS011;10970;48.714;9.584;2022-12-24T09:55:31;5.55;;;2.42;;
21615;SDS011;10970;48.714;9.584;2022-12-24T09:58:01;7.40;;;2.90;;
21615;SDS011;10970;48.714;9.584;2022-12-24T10:00:31;4.47;;;2.00;;
21615;SDS011;10970;48.714;9.584;2022-12-24T10:03:00;4.07;;;2.15;;
21615;SDS011;10970;48.714;9.584;2022-12-24T10:05:35;9.53;;;2.77;;
21615;SDS011;10970;48.714;9.584;2022-12-24T10:08:26;5.63;;;3.22;;
21615;SDS011;10970;48.714;9.584;2022-12-24T10:16:42;9.85;;;2.78;;
21615;SDS011;10970;48.714;9.584;2022-12-24T10:27:18;7.85;;;2.97;;
21615;SDS011;10970;48.714;9.584;2022-12-24T10:29:51;12.43;;;5.72;;
21615;SDS011;10970;48.714;9.584;2022-12-24T10:32:21;37.42;;;15.40;;
21615;SDS011;10970;48.714;9.584;2022-12-24T10:35:03;11.90;;;7.22;;
21615;SDS011;10970;48.714;9.584;2022-12-24T10:37:40;7.93;;;3.72;;
21615;SDS011;10970;48.714;9.584;2022-12-24T10:40:11;6.68;;;2.60;;
21615;SDS011;10970;48.714;9.584;2022-12-24T10:42:51;5.13;;;2.83;;
21615;SDS011;10970;48.714;9.584;2022-12-24T10:45:17;7.90;;;2.20;;
21615;SDS011;10970;48.714;9.584;2022-12-24T10:47:47;7.50;;;2.75;;
21615;SDS011;10970;48.714;9.584;2022-12-24T10:52:48;4.38;;;2.97;;
21615;SDS011;10970;48.714;9.584;2022-12-24T10:57:43;11.70;;;3.33;;
21615;SDS011;10970;48.714;9.584;2022-12-24T11:00:18;3.73;;;2.10;;
21615;SDS011;10970;48.714;9.584;2022-12-24T11:02:45;5.83;;;2.87;;
21615;SDS011;10970;48.714;9.584;2022-12-24T11:05:28;6.20;;;2.50;;
21615;SDS011;10970;48.714;9.584;2022-12-24T11:08:00;13.73;;;3.67;;
21615;SDS011;10970;48.714;9.584;2022-12-24T11:10:28;4.25;;;2.03;;
21615;SDS011;10970;48.714;9.584;2022-12-24T11:12:55;7.50;;;2.05;;
21615;SDS011;10970;48.714;9.584;2022-12-24T11:15:22;7.40;;;2.23;;
21615;SDS011;10970;48.714;9.584;2022-12-24T11:18:04;3.53;;;1.40;;
21615;SDS011;10970;48.714;9.584;2022-12-24T11:20:37;15.37;;;1.90;;
21615;SDS011;10970;48.714;9.584;2022-12-24T11:23:03;9.27;;;2.70;;
21615;SDS011;10970;48.714;9.584;2022-12-24T11:25:33;5.43;;;2.83;;
21615;SDS011;10970;48.714;9.584;2022-12-24T11:28:11;6.43;;;2.17;;
21615;SDS011;10970;48.714;9.584;2022-12-24T11:30:42;6.23;;;2.30;;
21615;SDS011;10970;48.714;9.584;2022-12-24T11:33:30;4.72;;;2.53;;
21615;SDS011;10970;48.714;9.584;2022-12-24T11:36:09;7.45;;;2.33;;
21615;SDS011;10970;48.714;9.584;2022-12-24T11:38:36;5.70;;;2.00;;
21615;SDS011;10970;48.714;9.584;2022-12-24T11:41:04;9.07;;;2.13;;
21615;SDS011;10970;48.714;9.584;2022-12-24T11:43:40;9.60;;;1.63;;
21615;SDS011;10970;48.714;9.584;2022-12-24T11:46:21;6.37;;;2.07;;
21615;SDS011;10970;48.714;9.584;2022-12-24T11:52:02;4.88;;;2.38;;
21615;SDS011;10970;48.714;9.584;2022-12-24T11:54:39;7.80;;;2.30;;
21615;SDS011;10970;48.714;9.584;2022-12-24T11:57:13;8.30;;;2.57;;
21615;SDS011;10970;48.714;9.584;2022-12-24T11:59:43;6.63;;;1.97;;
21615;SDS011;10970;48.714;9.584;2022-12-24T12:02:20;3.53;;;2.63;;
21615;SDS011;10970;48.714;9.584;2022-12-24T12:04:59;6.38;;;2.08;;
21615;SDS011;10970;48.714;9.584;2022-12-24T12:07:34;8.40;;;3.00;;
21615;SDS011;10970;48.714;9.584;2022-12-24T12:10:14;5.97;;;2.53;;
21615;SDS011;10970;48.714;9.584;2022-12-24T12:12:43;6.70;;;2.00;;
21615;SDS011;10970;48.714;9.584;2022-12-24T12:15:15;4.17;;;2.13;;
21615;SDS011;10970;48.714;9.584;2022-12-24T12:20:57;6.63;;;2.93;;
21615;SDS011;10970;48.714;9.584;2022-12-24T12:23:34;7.17;;;3.03;;
21615;SDS011;10970;48.714;9.584;2022-12-24T12:26:13;6.90;;;2.33;;
21615;SDS011;10970;48.714;9.584;2022-12-24T12:28:57;13.20;;;3.43;;
21615;SDS011;10970;48.714;9.584;2022-12-24T12:31:37;8.83;;;2.57;;
21615;SDS011;10970;48.714;9.584;2022-12-24T12:34:14;3.73;;;1.63;;
21615;SDS011;10970;48.714;9.584;2022-12-24T12:36:45;11.33;;;2.70;;
21615;SDS011;10970;48.714;9.584;2022-12-24T12:39:11;5.43;;;2.57;;
21615;SDS011;10970;48.714;9.584;2022-12-24T12:56:09;5.60;;;2.00;;
21615;SDS011;10970;48.714;9.584;2022-12-24T12:58:52;1.90;;;1.50;;
21615;SDS011;10970;48.714;9.584;2022-12-24T13:01:54;5.30;;;2.60;;
21615;SDS011;10970;48.714;9.584;2022-12-24T13:12:35;4.13;;;2.47;;
21615;SDS011;10970;48.714;9.584;2022-12-24T13:20:41;6.03;;;2.23;;
21615;SDS011;10970;48.714;9.584;2022-12-24T13:23:19;6.83;;;2.23;;
21615;SDS011;10970;48.714;9.584;2022-12-24T13:25:47;5.03;;;3.00;;
21615;SDS011;10970;48.714;9.584;2022-12-24T13:30:40;6.83;;;2.47;;
21615;SDS011;10970;48.714;9.584;2022-12-24T13:33:10;9.40;;;3.77;;
21615;SDS011;10970;48.714;9.584;2022-12-24T13:35:38;10.47;;;2.50;;
21615;SDS011;10970;48.714;9.584;2022-12-24T13:40:52;13.57;;;3.70;;
21615;SDS011;10970;48.714;9.584;2022-12-24T13:49:29;6.63;;;2.67;;
21615;SDS011;10970;48.714;9.584;2022-12-24T13:52:04;5.60;;;2.65;;
21615;SDS011;10970;48.714;9.584;2022-12-24T13:54:40;7.03;;;2.30;;
21615;SDS011;10970;48.714;9.584;2022-12-24T13:59:56;5.40;;;2.70;;
21615;SDS011;10970;48.714;9.584;2022-12-24T14:02:26;5.97;;;3.40;;
21615;SDS011;10970;48.714;9.584;2022-12-24T14:04:56;10.33;;;4.10;;
21615;SDS011;10970;48.714;9.584;2022-12-24T14:07:27;9.37;;;3.80;;
21615;SDS011;10970;48.714;9.584;2022-12-24T14:09:54;6.13;;;3.47;;
21615;SDS011;10970;48.714;9.584;2022-12-24T14:12:31;9.73;;;4.17;;
21615;SDS011;10970;48.714;9.584;2022-12-24T14:18:09;13.63;;;6.00;;
21615;SDS011;10970;48.714;9.584;2022-12-24T14:20:40;9.77;;;5.00;;
21615;SDS011;10970;48.714;9.584;2022-12-24T14:23:13;12.93;;;5.00;;
21615;SDS011;10970;48.714;9.584;2022-12-24T14:25:52;6.53;;;3.93;;
21615;SDS011;10970;48.714;9.584;2022-12-24T14:28:18;5.50;;;2.53;;
21615;SDS011;10970;48.714;9.584;2022-12-24T14:30:58;4.30;;;2.70;;
21615;SDS011;10970;48.714;9.584;2022-12-24T14:33:32;5.13;;;2.30;;
21615;SDS011;10970;48.714;9.584;2022-12-24T14:35:59;13.87;;;3.47;;
21615;SDS011;10970;48.714;9.584;2022-12-24T14:38:27;6.73;;;2.90;;
21615;SDS011;10970;48.714;9.584;2022-12-24T14:54:41;9.23;;;2.67;;
21615;SDS011;10970;48.714;9.584;2022-12-24T15:07:33;14.07;;;4.05;;
21615;SDS011;10970;48.714;9.584;2022-12-24T15:10:03;12.83;;;4.20;;
21615;SDS011;10970;48.714;9.584;2022-12-24T15:12:32;6.68;;;3.22;;
21615;SDS011;10970;48.714;9.584;2022-12-24T15:14:58;6.35;;;3.60;;
21615;SDS011;10970;48.714;9.584;2022-12-24T15:17:24;9.60;;;4.30;;
21615;SDS011;10970;48.714;9.584;2022-12-24T15:19:51;5.75;;;2.50;;
21615;SDS011;10970;48.714;9.584;2022-12-24T15:22:25;6.10;;;3.83;;
21615;SDS011;10970;48.714;9.584;2022-12-24T15:24:54;6.70;;;3.45;;
21615;SDS011;10970;48.714;9.584;2022-12-24T15:27:23;9.93;;;4.93;;
21615;SDS011;10970;48.714;9.584;2022-12-24T15:29:57;14.75;;;6.35;;
21615;SDS011;10970;48.714;9.584;2022-12-24T15:32:23;12.70;;;6.72;;
21615;SDS011;10970;48.714;9.584;2022-12-24T15:34:50;8.73;;;6.20;;
21615;SDS011;10970;48.714;9.584;2022-12-24T15:37:24;20.23;;;7.43;;
21615;SDS011;10970;48.714;9.584;2022-12-24T15:40:00;13.18;;;6.10;;
21615;SDS011;10970;48.714;9.584;2022-12-24T15:42:33;12.52;;;6.55;;
21615;SDS011;10970;48.714;9.584;2022-12-24T15:47:29;10.70;;;6.63;;
21615;SDS011;10970;48.714;9.584;2022-12-24T15:50:18;9.52;;;6.18;;
21615;SDS011;10970;48.714;9.584;2022-12-24T15:52:47;10.48;;;6.00;;
21615;SDS011;10970;48.714;9.584;2022-12-24T15:58:23;9.95;;;4.30;;
21615;SDS011;10970;48.714;9.584;2022-12-24T16:03:29;6.32;;;4.55;;
21615;SDS011;10970;48.714;9.584;2022-12-24T16:06:13;11.20;;;5.32;;
21615;SDS011;10970;48.714;9.584;2022-12-24T16:08:39;7.55;;;4.95;;
21615;SDS011;10970;48.714;9.584;2022-12-24T16:16:15;15.40;;;8.20;;
21615;SDS011;10970;48.714;9.584;2022-12-24T16:21:18;15.73;;;6.70;;
21615;SDS011;10970;48.714;9.584;2022-12-24T16:23:47;19.30;;;9.90;;
21615;SDS011;10970;48.714;9.584;2022-12-24T16:26:16;20.27;;;7.35;;
21615;SDS011;10970;48.714;9.584;2022-12-24T16:28:42;11.40;;;6.57;;
21615;SDS011;10970;48.714;9.584;2022-12-24T16:31:13;9.03;;;5.90;;
21615;SDS011;10970;48.714;9.584;2022-12-24T16:33:42;14.55;;;7.15;;
21615;SDS011;10970;48.714;9.584;2022-12-24T16:36:08;13.80;;;8.57;;
21615;SDS011;10970;48.714;9.584;2022-12-24T16:38:34;21.80;;;13.35;;
21615;SDS011;10970;48.714;9.584;2022-12-24T16:41:20;20.83;;;15.23;;
21615;SDS011;10970;48.714;9.584;2022-12-24T16:43:46;26.52;;;15.13;;
21615;SDS011;10970;48.714;9.584;2022-12-24T16:46:15;22.35;;;15.52;;
21615;SDS011;10970;48.714;9.584;2022-12-24T16:48:43;20.52;;;16.33;;
21615;SDS011;10970;48.714;9.584;2022-12-24T16:51:11;21.92;;;16.65;;
21615;SDS011;10970;48.714;9.584;2022-12-24T16:53:37;37.43;;;17.70;;
21615;SDS011;10970;48.714;9.584;2022-12-24T16:56:03;37.23;;;18.50;;
21615;SDS011;10970;48.714;9.584;2022-12-24T16:58:29;44.53;;;25.95;;
21615;SDS011;10970;48.714;9.584;2022-12-24T17:00:54;48.57;;;26.57;;
21615;SDS011;10970;48.714;9.584;2022-12-24T17:03:20;38.20;;;19.63;;
21615;SDS011;10970;48.714;9.584;2022-12-24T17:05:46;30.37;;;17.50;;
21615;SDS011;10970;48.714;9.584;2022-12-24T17:08:12;26.40;;;14.53;;
21615;SDS011;10970;48.714;9.584;2022-12-24T17:10:38;28.60;;;16.60;;
21615;SDS011;10970;48.714;9.584;2022-12-24T17:13:04;35.88;;;19.48;;
21615;SDS011;10970;48.714;9.584;2022-12-24T17:15:30;45.10;;;24.00;;
21615;SDS011;10970;48.714;9.584;2022-12-24T17:17:56;33.58;;;18.70;;
21615;SDS011;10970;48.714;9.584;2022-12-24T17:20:22;24.43;;;14.83;;
21615;SDS011;10970;48.714;9.584;2022-12-24T17:22:48;26.30;;;12.20;;